Time;durP1;ratioP1;P1;durP2;ratioP2;P2;SDS_P1;SDS_P2;PMS_P1;PMS_P2;Temp;Humidity;BMP_temperature;BMP_pressure;BME280_temperature;BME280_humidity;BME280_pressure;Samples;Min_cycle;Max_cycle;Signal;HPM_P1;HPM_P2
2021/05/14 00:00:49;;;;;;;2.63;1.53;;;;;;;14.32;85.84;97248.50;5043495;28;20226;-66
2021/05/14 00:03:16;;;;;;;1.20;0.50;;;;;;;14.34;85.84;97251.78;5046302;28;20576;-65
2021/05/14 00:05:43;;;;;;;2.07;0.60;;;;;;;14.18;86.93;97249.88;5045588;28;20218;-65
2021/05/14 00:08:10;;;;;;;1.73;0.80;;;;;;;14.24;85.97;97249.72;5051542;28;20207;-65
2021/05/14 00:10:38;;;;;;;1.20;0.80;;;;;;;14.31;86.15;97246.88;5046925;28;20258;-65
2021/05/14 00:13:06;;;;;;;2.07;0.83;;;;;;;14.31;85.11;97246.88;5048182;28;20207;-65
2021/05/14 00:15:32;;;;;;;2.60;0.63;;;;;;;14.27;85.17;97259.97;5046547;28;20196;-65
2021/05/14 00:17:59;;;;;;;0.70;0.60;;;;;;;14.18;85.52;97255.22;5042587;28;20209;-64
2021/05/14 00:20:26;;;;;;;1.40;0.70;;;;;;;14.26;85.41;97244.94;5046205;28;20244;-65
2021/05/14 00:22:53;;;;;;;1.90;0.70;;;;;;;14.41;84.10;97247.06;5051926;28;20593;-64
2021/05/14 00:25:20;;;;;;;1.50;0.60;;;;;;;14.51;83.76;97256.09;5047021;28;20218;-64
2021/05/14 00:27:48;;;;;;;0.63;0.40;;;;;;;14.30;83.97;97250.63;5044731;28;20745;-64
2021/05/14 00:30:16;;;;;;;0.50;0.50;;;;;;;14.48;83.11;97255.78;5045225;28;20231;-65
2021/05/14 00:32:44;;;;;;;0.63;0.50;;;;;;;14.36;84.00;97249.66;5052568;28;20206;-65
2021/05/14 00:35:11;;;;;;;0.93;0.60;;;;;;;14.38;83.68;97243.00;5041099;28;20293;-66
2021/05/14 00:37:38;;;;;;;2.30;0.90;;;;;;;14.53;83.12;97250.50;5050096;28;20211;-66
2021/05/14 00:40:07;;;;;;;0.53;0.50;;;;;;;14.35;83.64;97251.53;5045446;28;20245;-65
2021/05/14 00:42:33;;;;;;;1.00;0.70;;;;;;;14.12;84.40;97248.13;5050175;28;20551;-66
2021/05/14 00:45:01;;;;;;;0.83;0.83;;;;;;;14.34;84.35;97247.22;5041393;28;20230;-65
2021/05/14 00:47:28;;;;;;;0.80;0.60;;;;;;;14.38;84.32;97250.25;5043546;28;20206;-65
2021/05/14 00:49:55;;;;;;;0.60;0.60;;;;;;;14.37;84.15;97253.97;5051101;28;20636;-65
2021/05/14 00:52:22;;;;;;;1.13;0.63;;;;;;;14.24;84.61;97249.72;5049473;28;20211;-66
2021/05/14 00:54:50;;;;;;;1.47;0.60;;;;;;;14.12;85.54;97253.50;5050201;28;20200;-65
2021/05/14 00:57:17;;;;;;;2.50;0.90;;;;;;;14.27;85.39;97245.75;5046992;28;20567;-65
2021/05/14 00:59:45;;;;;;;0.53;0.53;;;;;;;14.20;84.80;97253.97;5050007;28;20202;-66
2021/05/14 01:02:13;;;;;;;2.27;0.90;;;;;;;14.27;84.76;97257.31;5041593;28;20198;-66
2021/05/14 01:04:40;;;;;;;0.80;0.70;;;;;;;14.20;85.16;97259.34;5046979;28;20223;-65
2021/05/14 01:07:07;;;;;;;3.10;0.67;;;;;;;14.04;85.41;97251.22;5043142;28;20209;-65
2021/05/14 01:09:34;;;;;;;1.53;0.90;;;;;;;14.38;84.08;97253.72;5046143;28;20241;-66
2021/05/14 01:12:02;;;;;;;1.83;0.80;;;;;;;14.04;86.55;97248.53;5046888;28;20206;-65
2021/05/14 01:14:28;;;;;;;0.93;0.60;;;;;;;13.85;87.91;97247.09;5038488;28;20206;-65
2021/05/14 01:16:55;;;;;;;2.57;0.77;;;;;;;14.20;85.54;97245.91;5046203;28;20209;-65
2021/05/14 01:19:23;;;;;;;1.70;0.70;;;;;;;14.28;85.62;97250.06;5048256;28;20197;-65
2021/05/14 01:21:51;;;;;;;0.60;0.60;;;;;;;13.85;87.43;97242.56;5045530;28;20218;-65
2021/05/14 01:24:18;;;;;;;0.87;0.60;;;;;;;14.14;86.87;97246.03;5049876;28;20329;-65
2021/05/14 01:26:45;;;;;;;1.47;0.80;;;;;;;14.16;85.98;97244.72;5047796;28;20211;-64
2021/05/14 01:29:12;;;;;;;1.17;0.70;;;;;;;14.31;84.80;97242.34;5041283;28;20202;-65
2021/05/14 01:31:40;;;;;;;0.57;0.57;;;;;;;14.06;85.84;97244.56;5047468;28;20221;-65
2021/05/14 01:34:07;;;;;;;2.27;0.70;;;;;;;13.88;87.36;97239.38;5042624;28;20268;-65
2021/05/14 01:36:35;;;;;;;1.00;0.60;;;;;;;14.05;86.30;97242.94;5038763;28;20623;-65
2021/05/14 01:39:07;;;;;;;2.07;0.70;;;;;;;14.12;86.12;97242.75;5040018;28;20207;-64
2021/05/14 01:41:34;;;;;;;1.27;0.90;;;;;;;14.10;86.66;97231.47;5044283;28;20223;-65
2021/05/14 01:44:02;;;;;;;1.03;0.60;;;;;;;13.86;88.49;97235.31;5048204;28;20234;-65
2021/05/14 01:46:28;;;;;;;0.60;0.57;;;;;;;13.95;88.42;97231.19;5042277;28;20212;-65
2021/05/14 01:48:55;;;;;;;0.50;0.50;;;;;;;13.80;89.68;97226.38;5035837;28;20210;-65
2021/05/14 01:51:23;;;;;;;2.27;0.53;;;;;;;13.76;89.83;97229.75;5038334;28;20245;-65
2021/05/14 01:53:50;;;;;;;1.73;0.53;;;;;;;13.94;88.41;97235.72;5048980;28;20207;-65
2021/05/14 01:56:19;;;;;;;3.17;0.70;;;;;;;13.96;89.82;97233.63;5050670;28;20203;-65
2021/05/14 01:58:46;;;;;;;1.33;0.53;;;;;;;13.72;89.74;97242.81;5034984;28;20214;-65
2021/05/14 02:01:13;;;;;;;2.47;0.57;;;;;;;13.81;89.43;97235.22;5045005;28;20228;-65
2021/05/14 02:03:41;;;;;;;1.37;0.63;;;;;;;13.74;90.23;97234.56;5046431;28;20222;-65
2021/05/14 02:06:08;;;;;;;0.90;0.50;;;;;;;13.77;89.72;97231.41;5043515;28;20202;-65
2021/05/14 02:08:36;;;;;;;1.13;0.70;;;;;;;13.78;89.60;97230.34;5046128;28;20876;-66
2021/05/14 02:11:03;;;;;;;3.80;0.67;;;;;;;13.56;92.42;97235.53;5043996;28;20251;-65
2021/05/14 02:13:31;;;;;;;0.77;0.67;;;;;;;13.76;89.67;97230.59;5041361;28;20234;-64
2021/05/14 02:15:58;;;;;;;0.77;0.60;;;;;;;13.48;92.69;97230.53;5040846;28;20917;-65
2021/05/14 02:18:25;;;;;;;2.50;0.60;;;;;;;13.51;92.36;97222.03;5037410;28;20225;-65
2021/05/14 02:20:52;;;;;;;1.07;0.60;;;;;;;13.42;93.26;97231.50;5046443;28;20244;-65
2021/05/14 02:23:19;;;;;;;0.67;0.60;;;;;;;13.40;93.22;97232.78;5046203;28;20202;-65
2021/05/14 02:25:46;;;;;;;4.67;0.80;;;;;;;13.40;94.10;97238.16;5045859;28;20222;-65
2021/05/14 02:28:12;;;;;;;0.80;0.60;;;;;;;13.43;93.39;97238.47;5048713;28;20267;-65
2021/05/14 02:30:40;;;;;;;1.97;0.80;;;;;;;13.19;94.53;97234.25;5046160;28;20232;-65
2021/05/14 02:33:07;;;;;;;2.30;0.80;;;;;;;13.54;92.90;97240.34;5049057;28;20218;-65
2021/05/14 02:35:34;;;;;;;1.07;0.87;;;;;;;13.22;93.79;97243.69;5047471;28;20213;-65
2021/05/14 02:38:01;;;;;;;0.97;0.60;;;;;;;13.59;92.00;97245.81;5036471;28;20598;-65
2021/05/14 02:40:28;;;;;;;1.00;0.70;;;;;;;13.37;93.25;97236.75;5048693;28;20564;-65
2021/05/14 02:42:55;;;;;;;1.83;0.60;;;;;;;13.42;92.46;97238.75;5042720;28;20225;-65
2021/05/14 02:45:22;;;;;;;1.50;0.63;;;;;;;13.42;93.05;97236.06;5042779;28;20225;-65
2021/05/14 02:47:50;;;;;;;1.33;0.80;;;;;;;13.12;95.22;97236.22;5041811;28;20651;-65
2021/05/14 02:50:17;;;;;;;6.43;1.07;;;;;;;13.58;92.31;97240.69;5049401;28;20228;-66
2021/05/14 02:52:44;;;;;;;1.60;0.70;;;;;;;13.46;92.18;97248.75;5054810;28;20288;-65
2021/05/14 02:55:12;;;;;;;1.00;0.73;;;;;;;13.58;91.39;97243.34;5052972;28;20205;-65
2021/05/14 02:57:38;;;;;;;1.23;0.80;;;;;;;13.47;92.77;97236.97;5048016;28;20209;-65
2021/05/14 03:00:07;;;;;;;2.83;0.70;;;;;;;13.36;93.31;97234.31;5044770;28;20233;-66
2021/05/14 03:02:34;;;;;;;0.97;0.70;;;;;;;13.43;92.28;97238.47;5051459;28;20206;-65
2021/05/14 03:05:01;;;;;;;1.17;0.60;;;;;;;13.29;92.76;97244.34;5040292;28;20223;-65
2021/05/14 03:07:28;;;;;;;1.10;0.80;;;;;;;13.41;92.92;97237.09;5046923;28;20206;-65
2021/05/14 03:09:55;;;;;;;2.60;0.80;;;;;;;13.32;93.60;97239.34;5041492;28;20367;-65
2021/05/14 03:12:22;;;;;;;0.60;0.60;;;;;;;13.27;93.83;97239.22;5051766;28;20205;-64
2021/05/14 03:14:48;;;;;;;2.90;0.80;;;;;;;13.21;94.10;97245.53;5049312;28;20202;-66
2021/05/14 03:17:15;;;;;;;1.60;0.80;;;;;;;13.05;96.41;97250.78;5049713;28;20210;-65
2021/05/14 03:19:42;;;;;;;0.80;0.77;;;;;;;13.07;95.83;97244.16;5046143;28;20209;-65
2021/05/14 03:22:10;;;;;;;1.23;0.70;;;;;;;13.05;95.59;97248.13;5051719;28;20662;-66
2021/05/14 03:24:36;;;;;;;1.10;0.80;;;;;;;12.83;98.15;97245.22;5053017;28;20229;-65
2021/05/14 03:27:04;;;;;;;2.43;0.63;;;;;;;13.00;96.07;97248.84;5047969;28;20208;-65
2021/05/14 03:29:30;;;;;;;2.20;0.83;;;;;;;12.77;99.43;97250.66;5047444;28;20210;-65
2021/05/14 03:31:57;;;;;;;2.40;0.80;;;;;;;12.87;98.06;97235.63;5046209;28;20705;-66
2021/05/14 03:34:24;;;;;;;1.33;0.63;;;;;;;12.78;100.00;97243.22;5051438;28;20277;-66
2021/05/14 03:36:51;;;;;;;2.40;1.00;;;;;;;12.92;98.56;97243.00;5051391;28;20612;-66
2021/05/14 03:39:22;;;;;;;1.30;0.83;;;;;;;12.21;100.00;97240.47;5052732;28;20592;-65
2021/05/14 03:41:51;;;;;;;1.77;0.80;;;;;;;12.48;100.00;97245.16;5048613;28;20236;-65
2021/05/14 03:44:17;;;;;;;1.13;0.83;;;;;;;12.36;100.00;97240.84;5041191;28;20223;-65
2021/05/14 03:46:44;;;;;;;1.10;0.83;;;;;;;12.13;100.00;97234.66;5048932;28;20212;-65
2021/05/14 03:49:11;;;;;;;3.60;1.00;;;;;;;12.35;100.00;97249.13;5052751;28;20704;-65
2021/05/14 03:51:39;;;;;;;1.47;0.70;;;;;;;12.51;100.00;97243.09;5047633;28;20737;-65
2021/05/14 03:54:06;;;;;;;4.33;1.00;;;;;;;12.27;100.00;97247.59;5052826;28;20293;-65
2021/05/14 03:56:34;;;;;;;2.47;0.80;;;;;;;12.43;100.00;97246.94;5049609;28;20213;-64
2021/05/14 03:59:01;;;;;;;2.40;1.00;;;;;;;12.63;100.00;97245.53;5037077;28;20217;-65
2021/05/14 04:01:29;;;;;;;1.93;0.87;;;;;;;12.57;100.00;97245.63;5044000;28;20230;-65
2021/05/14 04:03:56;;;;;;;1.13;0.67;;;;;;;12.48;100.00;97247.06;5045901;28;20229;-65
2021/05/14 04:06:24;;;;;;;2.10;0.90;;;;;;;12.53;100.00;97247.97;5048520;28;20216;-65
2021/05/14 04:08:51;;;;;;;1.83;1.33;;;;;;;12.48;100.00;97247.84;5040111;28;20219;-65
2021/05/14 04:11:39;;;;;;;0.87;0.70;;;;;;;12.35;100.00;97255.28;5043813;28;20325;-64
2021/05/14 04:16:52;;;;;;;3.83;1.10;;;;;;;12.03;100.00;97252.06;5046247;28;20230;-64
2021/05/14 04:22:02;;;;;;;2.27;1.10;;;;;;;12.45;100.00;97260.88;5040131;28;20210;-66
2021/05/14 04:24:29;;;;;;;1.87;1.03;;;;;;;12.49;100.00;97252.16;5038347;28;20595;-66
2021/05/14 04:26:57;;;;;;;1.87;0.90;;;;;;;12.12;100.00;97249.91;5044619;28;20278;-63
2021/05/14 04:29:26;;;;;;;2.27;0.90;;;;;;;12.38;100.00;97246.81;5047897;28;20283;-64
2021/05/14 04:31:53;;;;;;;1.37;1.00;;;;;;;12.25;100.00;97246.19;5041820;28;20685;-66
2021/05/14 04:34:20;;;;;;;1.90;1.10;;;;;;;12.40;100.00;97246.59;5041996;28;20202;-64
2021/05/14 04:36:47;;;;;;;3.67;1.00;;;;;;;12.57;100.00;97247.53;5049020;28;20256;-62
2021/05/14 04:39:15;;;;;;;1.00;0.90;;;;;;;12.54;100.00;97246.13;5046291;28;20209;-63
2021/05/14 04:41:42;;;;;;;1.17;1.00;;;;;;;12.68;100.00;97244.03;5045888;28;20226;-66
2021/05/14 04:44:09;;;;;;;1.50;0.70;;;;;;;12.86;100.00;97243.94;5051440;28;20229;-63
2021/05/14 04:46:36;;;;;;;0.87;0.77;;;;;;;13.00;100.00;97240.78;5052295;28;20216;-66
2021/05/14 04:49:03;;;;;;;0.80;0.80;;;;;;;13.14;99.77;97241.34;5045582;28;20206;-66
2021/05/14 04:51:30;;;;;;;1.63;0.80;;;;;;;12.62;100.00;97243.09;5049634;28;20929;-66
2021/05/14 04:53:58;;;;;;;1.77;0.87;;;;;;;12.58;100.00;97250.75;5046943;28;20288;-63
2021/05/14 04:56:24;;;;;;;2.27;0.93;;;;;;;13.25;98.76;97245.88;5045703;28;20253;-64
2021/05/14 04:58:51;;;;;;;2.30;1.33;;;;;;;12.81;100.00;97254.53;5038612;28;20233;-64
2021/05/14 05:01:19;;;;;;;1.97;0.93;;;;;;;12.99;100.00;97249.88;5044488;28;20328;-65
2021/05/14 05:03:50;;;;;;;2.03;0.80;;;;;;;13.40;98.24;97247.03;5049451;28;20206;-63
2021/05/14 05:06:17;;;;;;;2.47;0.90;;;;;;;13.91;93.75;97246.97;5048269;28;20202;-68
2021/05/14 05:08:44;;;;;;;1.57;0.77;;;;;;;13.86;94.02;97248.72;5048068;28;20265;-66
2021/05/14 05:11:11;;;;;;;2.03;1.00;;;;;;;13.96;93.44;97254.28;5050326;28;20312;-66
2021/05/14 05:13:38;;;;;;;1.50;0.93;;;;;;;14.01;92.53;97251.69;5043188;28;20210;-66
2021/05/14 05:16:05;;;;;;;1.23;1.00;;;;;;;14.33;90.50;97250.16;5049436;28;20745;-65
2021/05/14 05:18:32;;;;;;;1.33;0.87;;;;;;;15.08;85.38;97260.22;5050725;28;20207;-64
2021/05/14 05:21:00;;;;;;;1.10;0.70;;;;;;;14.96;83.66;97266.75;5045389;28;20595;-64
2021/05/14 05:23:27;;;;;;;1.77;0.80;;;;;;;15.35;82.97;97265.72;5046107;28;20219;-64
2021/05/14 05:25:54;;;;;;;2.70;0.70;;;;;;;15.31;80.76;97264.56;5038658;28;20228;-64
2021/05/14 05:28:22;;;;;;;1.43;0.50;;;;;;;15.40;80.96;97269.28;5032976;28;20222;-66
2021/05/14 05:30:48;;;;;;;7.43;1.00;;;;;;;15.37;81.42;97272.47;5045438;28;20307;-64
2021/05/14 05:33:15;;;;;;;2.50;0.93;;;;;;;15.73;78.45;97279.13;5041817;28;20274;-64
2021/05/14 05:35:42;;;;;;;1.00;0.60;;;;;;;15.78;78.10;97282.69;5046828;28;20577;-64
2021/05/14 05:38:17;;;;;;;1.10;0.70;;;;;;;15.60;78.19;97282.19;5044828;28;20205;-64
2021/05/14 05:40:44;;;;;;;2.03;0.83;;;;;;;15.80;77.73;97285.94;5041712;28;20293;-63
2021/05/14 05:43:11;;;;;;;2.67;0.77;;;;;;;15.82;77.83;97283.81;5050113;28;20204;-66
2021/05/14 05:45:38;;;;;;;3.40;0.93;;;;;;;16.03;76.83;97295.63;5051152;28;20222;-70
2021/05/14 05:48:08;;;;;;;1.57;0.77;;;;;;;16.13;76.08;97287.66;5037901;28;20206;-68
2021/05/14 05:50:35;;;;;;;5.80;0.70;;;;;;;16.50;74.11;97293.97;5050935;28;20232;-67
2021/05/14 05:53:01;;;;;;;3.67;0.50;;;;;;;16.73;72.74;97291.78;5047106;28;20208;-68
2021/05/14 05:55:29;;;;;;;1.23;0.83;;;;;;;16.88;71.87;97291.88;5046767;28;20208;-68
2021/05/14 05:57:56;;;;;;;1.23;0.67;;;;;;;17.01;70.69;97296.00;5040644;28;20758;-68
2021/05/14 06:00:23;;;;;;;2.20;0.77;;;;;;;16.69;72.11;97289.84;5048667;28;20220;-67
2021/05/14 06:02:50;;;;;;;2.17;0.70;;;;;;;16.82;69.69;97294.81;5047951;28;20206;-68
2021/05/14 06:05:16;;;;;;;2.20;0.60;;;;;;;16.22;72.44;97292.31;5045196;28;20227;-67
2021/05/14 06:07:43;;;;;;;2.70;0.80;;;;;;;16.37;74.60;97287.09;5048279;28;20206;-68
2021/05/14 06:10:11;;;;;;;0.57;0.50;;;;;;;16.97;68.87;97305.72;5043288;28;20715;-68
2021/05/14 06:12:39;;;;;;;0.97;0.47;;;;;;;16.68;68.71;97302.50;5044690;28;20207;-69
2021/05/14 06:15:07;;;;;;;0.77;0.30;;;;;;;16.96;67.69;97298.66;5040206;28;20219;-67
2021/05/14 06:17:38;;;;;;;1.23;0.50;;;;;;;17.28;66.84;97311.03;5047509;28;20776;-67
2021/05/14 06:20:07;;;;;;;1.67;0.57;;;;;;;17.00;67.47;97313.25;5045123;28;20269;-71
2021/05/14 06:22:33;;;;;;;2.00;0.40;;;;;;;16.93;67.37;97310.00;5041462;28;20220;-65
2021/05/14 06:25:00;;;;;;;0.40;0.40;;;;;;;17.69;65.32;97310.22;5050959;28;20273;-65
2021/05/14 06:27:27;;;;;;;0.40;0.30;;;;;;;17.07;66.78;97308.47;5037466;28;20563;-64
2021/05/14 06:29:55;;;;;;;0.67;0.40;;;;;;;16.33;69.78;97306.72;5048396;28;20298;-64
2021/05/14 06:32:22;;;;;;;0.70;0.40;;;;;;;17.07;66.33;97311.97;5043513;28;20212;-65
2021/05/14 06:34:50;;;;;;;1.53;0.60;;;;;;;16.77;66.06;97311.72;5033551;28;20205;-76
2021/05/14 06:37:18;;;;;;;1.27;0.40;;;;;;;16.98;65.34;97315.41;5042611;28;20221;-68
2021/05/14 06:39:45;;;;;;;0.93;0.30;;;;;;;17.11;64.17;97315.78;5047716;28;20202;-74
2021/05/14 06:42:11;;;;;;;0.93;0.50;;;;;;;16.72;66.05;97318.97;5047497;28;20205;-71
2021/05/14 06:44:38;;;;;;;2.40;0.40;;;;;;;16.83;65.17;97312.59;5040629;28;20228;-65
2021/05/14 06:47:06;;;;;;;0.47;0.30;;;;;;;17.74;62.30;97317.56;5034961;28;20663;-67
2021/05/14 06:49:33;;;;;;;0.57;0.40;;;;;;;17.73;61.81;97324.03;5032777;28;20233;-67
2021/05/14 06:52:00;;;;;;;1.10;0.70;;;;;;;16.86;63.49;97320.16;5047280;28;20233;-70
2021/05/14 06:54:26;;;;;;;0.97;0.40;;;;;;;17.05;64.54;97322.22;5039946;28;20216;-68
2021/05/14 06:56:53;;;;;;;0.70;0.60;;;;;;;17.65;60.71;97328.03;5036169;28;20293;-70
2021/05/14 06:59:20;;;;;;;0.83;0.50;;;;;;;17.62;61.86;97323.16;5035634;28;20208;-71
2021/05/14 07:01:47;;;;;;;0.90;0.40;;;;;;;17.86;60.10;97326.25;5046503;28;20228;-67
2021/05/14 07:04:15;;;;;;;0.83;0.50;;;;;;;17.95;59.14;97328.19;5046699;28;20236;-67
2021/05/14 07:06:42;;;;;;;0.53;0.30;;;;;;;18.48;57.10;97329.72;5043676;28;20209;-67
2021/05/14 07:09:09;;;;;;;1.00;0.30;;;;;;;17.97;59.21;97334.13;5041702;28;20298;-65
2021/05/14 07:11:36;;;;;;;0.60;0.43;;;;;;;18.02;57.69;97330.63;5041300;28;20231;-68
2021/05/14 07:14:03;;;;;;;0.50;0.50;;;;;;;18.26;55.42;97337.19;5045174;28;20220;-67
2021/05/14 07:16:29;;;;;;;1.30;0.47;;;;;;;17.68;58.15;97342.91;5037639;28;20205;-69
2021/05/14 07:18:56;;;;;;;0.43;0.30;;;;;;;18.28;56.03;97346.66;5042614;28;20204;-67
2021/05/14 07:21:24;;;;;;;0.40;0.30;;;;;;;18.11;56.80;97334.44;5038715;28;20270;-68
2021/05/14 07:23:51;;;;;;;1.30;0.40;;;;;;;18.35;55.18;97343.75;5043213;28;20698;-77
2021/05/14 07:26:18;;;;;;;0.73;0.30;;;;;;;17.21;59.67;97337.44;5044723;28;20202;-67
2021/05/14 07:28:45;;;;;;;0.80;0.40;;;;;;;17.07;63.99;97324.66;5047603;28;20667;-66
2021/05/14 07:31:12;;;;;;;2.20;0.70;;;;;;;18.12;61.48;97322.56;5046140;28;20587;-67
2021/05/14 07:33:40;;;;;;;0.50;0.40;;;;;;;18.18;59.04;97335.81;5047288;28;20209;-67
2021/05/14 07:36:07;;;;;;;0.77;0.40;;;;;;;17.76;59.38;97345.09;5048372;28;20205;-66
2021/05/14 07:38:34;;;;;;;0.40;0.40;;;;;;;17.32;61.65;97339.13;5047957;28;20311;-69
2021/05/14 07:41:01;;;;;;;0.77;0.50;;;;;;;17.86;57.54;97334.34;5047318;28;20229;-65
2021/05/14 07:43:28;;;;;;;1.73;0.40;;;;;;;18.67;55.83;97336.25;5049303;28;20697;-65
2021/05/14 07:45:55;;;;;;;1.40;0.63;;;;;;;18.24;53.01;97342.06;5046938;28;20819;-70
2021/05/14 07:48:22;;;;;;;0.47;0.37;;;;;;;18.91;51.88;97342.75;5049519;28;20224;-70
2021/05/14 07:50:50;;;;;;;1.40;0.50;;;;;;;18.72;50.83;97347.06;5048162;28;20232;-65
2021/05/14 07:53:16;;;;;;;1.00;0.57;;;;;;;18.50;53.92;97343.78;5052020;28;20269;-68
2021/05/14 07:55:44;;;;;;;1.27;0.70;;;;;;;18.82;54.64;97341.66;5045719;28;20206;-66
2021/05/14 07:58:11;;;;;;;0.40;0.40;;;;;;;18.55;54.77;97344.59;5045275;28;20289;-66
2021/05/14 08:00:38;;;;;;;0.87;0.40;;;;;;;18.77;54.59;97347.06;5047711;28;20236;-67
2021/05/14 08:03:05;;;;;;;0.50;0.50;;;;;;;19.48;51.09;97351.44;5047371;28;20215;-68
2021/05/14 08:05:32;;;;;;;0.70;0.30;;;;;;;19.84;50.29;97352.97;5043922;28;20703;-68
2021/05/14 08:08:00;;;;;;;1.80;0.50;;;;;;;18.99;49.86;97353.06;5048105;28;20202;-68
2021/05/14 08:10:27;;;;;;;1.73;0.57;;;;;;;20.08;48.33;97354.00;5045773;28;20236;-68
2021/05/14 08:12:54;;;;;;;2.90;0.57;;;15.40;1.00;;;20.95;44.03;97356.81;5047795;28;20202;-69
2021/05/14 08:15:21;;;;;;;1.60;0.40;;;15.40;1.00;;;20.62;43.75;97357.56;5040436;28;20211;-69
2021/05/14 08:17:51;;;;;;;0.60;0.50;;;15.40;1.00;;;19.63;46.27;97357.63;5044950;28;20205;-68
2021/05/14 08:20:17;;;;;;;0.20;0.20;;;15.10;1.00;;;20.27;42.78;97363.16;5044544;28;20302;-68
2021/05/14 08:22:44;;;;;;;0.93;0.50;;;14.90;99.90;;;20.03;45.71;97357.53;5049181;28;20258;-67
2021/05/14 08:25:12;;;;;;;1.53;0.40;;;14.90;99.90;;;20.15;47.03;97347.22;5046352;28;20236;-66
2021/05/14 08:27:39;;;;;;;1.77;0.60;;;14.90;99.90;;;20.05;46.97;97349.09;5044349;28;20204;-66
2021/05/14 08:30:09;;;;;;;0.90;0.43;;;14.80;1.00;;;18.95;49.63;97346.56;5041779;28;20243;-69
2021/05/14 08:32:36;;;;;;;1.17;0.50;;;14.70;1.00;;;19.19;49.19;97344.91;5045539;28;20241;-65
2021/05/14 08:35:03;;;;;;;2.67;0.50;;;14.60;1.00;;;20.03;47.83;97351.28;5052843;28;20204;-67
2021/05/14 08:37:30;;;;;;;1.33;0.40;;;14.80;1.00;;;19.77;46.22;97350.53;5050847;28;20571;-66
2021/05/14 08:39:57;;;;;;;1.17;0.60;;;14.80;1.00;;;19.65;45.60;97357.38;5043082;28;20226;-65
2021/05/14 08:42:23;;;;;;;0.53;0.40;;;14.70;1.00;;;19.89;45.05;97356.47;5045889;28;20264;-65
2021/05/14 08:44:50;;;;;;;2.40;0.50;;;14.80;1.00;;;19.27;47.72;97347.94;5052649;28;20224;-65
2021/05/14 08:47:18;;;;;;;1.53;0.50;;;14.60;1.00;;;20.23;45.18;97356.66;5053229;28;20555;-65
2021/05/14 08:49:47;;;;;;;1.63;0.40;;;14.70;1.00;;;20.70;42.75;97356.94;5051338;28;20215;-65
2021/05/14 08:52:16;;;;;;;0.70;0.30;;;14.90;1.00;;;21.63;40.45;97361.13;5039058;28;20204;-65
2021/05/14 08:54:45;;;;;;;0.30;0.30;;;15.60;1.00;;;20.73;40.92;97367.25;5049447;28;20238;-66
2021/05/14 08:57:11;;;;;;;0.50;0.40;;;15.90;1.00;;;20.86;42.90;97350.31;5052024;28;20201;-66
2021/05/14 08:59:38;;;;;;;0.70;0.40;;;15.80;1.00;;;20.56;43.07;97350.50;5052286;28;20606;-66
2021/05/14 09:02:05;;;;;;;1.07;0.47;;;15.80;1.00;;;21.12;42.84;97355.31;5049664;28;20299;-67
2021/05/14 09:04:33;;;;;;;0.63;0.60;;;15.80;1.00;;;20.40;44.44;97352.50;5044429;28;20603;-66
2021/05/14 09:07:01;;;;;;;1.07;0.50;;;15.80;1.00;;;20.01;44.92;97356.97;5046199;28;20205;-66
2021/05/14 09:09:36;;;;;;;7.40;1.10;;;15.50;1.00;;;19.25;47.33;97347.38;5046291;28;20259;-67
2021/05/14 09:12:03;;;;;;;3.53;0.43;;;15.10;1.00;;;20.24;44.08;97350.97;5051418;28;20281;-66
2021/05/14 09:14:35;;;;;;;0.67;0.40;;;15.00;1.00;;;19.97;43.32;97360.53;5046260;28;20208;-66
2021/05/14 09:17:12;;;;;;;1.10;0.40;;;14.90;1.00;;;19.96;43.68;97356.19;5050401;28;20218;-67
2021/05/14 09:19:42;;;;;;;2.33;0.50;;;14.80;1.00;;;18.90;47.64;97352.75;5047987;28;20209;-66
2021/05/14 09:22:14;;;;;;;0.37;0.33;;;14.50;1.00;;;18.64;49.07;97353.00;5051605;28;20255;-66
2021/05/14 09:24:44;;;;;;;1.40;0.40;;;14.20;1.00;;;18.56;50.81;97345.41;5039913;28;20225;-66
2021/05/14 09:27:28;;;;;;;1.10;0.30;;;14.10;1.00;;;19.20;49.90;97338.44;5051472;28;20201;-67
2021/05/14 09:29:57;;;;;;;0.40;0.30;;;14.20;1.00;;;19.67;47.70;97345.19;5046008;28;20231;-66
2021/05/14 09:32:27;;;;;;;0.90;0.47;;;14.40;1.00;;;19.80;47.17;97347.28;5044017;28;20202;-69
2021/05/14 09:34:56;;;;;;;2.17;0.50;;;14.50;1.00;;;19.82;46.44;97352.44;5039373;28;20208;-69
2021/05/14 09:37:25;;;;;;;0.43;0.30;;;14.70;1.00;;;19.52;46.58;97349.81;5043562;28;20203;-67
2021/05/14 09:40:12;;;;;;;0.50;0.30;;;14.70;1.00;;;20.57;44.33;97350.25;5049936;28;20287;-66
2021/05/14 09:42:38;;;;;;;0.30;0.30;;;14.90;1.00;;;21.72;41.74;97362.13;5048748;28;20213;-66
2021/05/14 09:45:29;;;;;;;1.17;0.40;;;15.60;1.00;;;22.16;40.24;97362.75;5051251;28;20233;-67
2021/05/14 09:48:01;;;;;;;0.50;0.33;;;16.00;1.00;;;21.71;41.70;97355.09;5047066;22;20223;-70
2021/05/14 09:50:33;;;;;;;1.33;0.50;;;16.60;1.00;;;20.64;42.17;97356.19;5025480;28;20296;-71
2021/05/14 09:53:11;;;;;;;0.63;0.53;;;16.20;1.00;;;20.06;44.58;97345.34;5030299;28;20678;-69
2021/05/14 09:55:43;;;;;;;0.57;0.40;;;15.80;1.00;;;20.48;43.01;97346.53;5032012;28;20213;-71
2021/05/14 09:58:13;;;;;;;1.60;0.50;;;15.70;1.00;;;19.84;45.94;97339.44;5031435;28;20236;-70
2021/05/14 10:00:40;;;;;;;1.93;0.40;;;15.50;1.00;;;19.81;45.97;97327.25;5024499;28;20677;-68
2021/05/14 10:03:06;;;;;;;0.90;0.50;;;15.60;1.00;;;20.77;42.02;97339.28;5025954;28;20304;-70
2021/05/14 10:05:36;;;;;;;0.70;0.37;;;16.20;1.00;;;20.42;42.02;97344.09;5018849;28;20238;-68
2021/05/14 10:08:05;;;;;;;0.50;0.50;;;16.50;1.00;;;19.99;43.65;97339.38;5020524;28;20232;-71
2021/05/14 10:10:34;;;;;;;0.67;0.60;;;16.00;1.00;;;20.75;40.09;97349.59;5025447;28;20207;-68
2021/05/14 10:13:02;;;;;;;0.47;0.33;;;16.30;1.00;;;20.22;42.22;97346.91;5025767;28;20292;-68
2021/05/14 10:15:29;;;;;;;1.50;0.50;;;15.80;1.00;;;19.38;44.09;97337.91;5013925;28;20205;-68
2021/05/14 10:17:57;;;;;;;1.47;0.50;;;15.40;1.00;;;19.26;46.18;97340.88;5028345;28;20227;-68
2021/05/14 10:20:29;;;;;;;0.90;0.43;;;15.20;1.00;;;19.11;45.95;97335.44;5013687;28;20209;-68
2021/05/14 10:22:59;;;;;;;3.97;0.50;;;15.00;1.00;;;19.52;46.56;97345.22;5028535;28;20205;-68
2021/05/14 10:25:48;;;;;;;2.93;0.70;;;14.90;1.00;;;19.82;51.39;97334.28;5018056;28;20313;-69
2021/05/14 10:28:18;;;;;;;2.17;0.63;;;14.80;1.00;;;19.54;56.54;97320.56;5023713;28;20218;-68
2021/05/14 10:31:18;;;;;;;1.20;0.70;;;13.80;1.00;;;18.67;95.21;97287.59;5017381;28;20262;-68
2021/05/14 10:33:47;;;;;;;3.77;0.93;;;;;;;17.89;96.65;97312.22;5023131;28;20213;-69
2021/05/14 10:36:47;;;;;;;11.77;1.60;;;;;;;17.24;100.00;97299.16;5012587;28;20225;-68
2021/05/14 10:39:21;;;;;;;3.73;1.00;;;;;;;17.25;100.00;97300.78;5018759;28;20293;-67
2021/05/14 10:41:57;;;;;;;1.07;0.60;;;;;;;16.39;100.00;97303.00;5016590;28;20208;-71
2021/05/14 10:44:41;;;;;;;2.20;0.60;;;;;;;16.73;100.00;97310.66;5021557;28;20277;-68
2021/05/14 10:47:45;;;;;;;0.73;0.50;;;;;;;17.00;100.00;97302.47;5028870;28;20278;-68
2021/05/14 10:50:40;;;;;;;0.77;0.50;;;;;;;17.27;96.82;97298.63;5023847;28;20206;-68
2021/05/14 10:53:21;;;;;;;2.30;0.63;;;;;;;17.24;94.42;97314.53;5027223;28;20203;-69
2021/05/14 10:55:49;;;;;;;3.10;0.63;;;;;;;17.79;100.00;97322.97;5030220;28;20212;-68
2021/05/14 10:58:45;;;;;;;2.07;0.80;;;;;;;16.58;100.00;97339.31;5026337;28;20718;-68
2021/05/14 11:01:27;;;;;;;4.23;0.90;;;;;;;16.84;100.00;97331.22;5015802;28;20203;-69
2021/05/14 11:03:54;;;;;;;6.83;1.17;;;;;;;15.46;100.00;97321.25;5018216;28;20203;-70
2021/05/14 11:06:21;;;;;;;2.83;0.80;;;;;;;14.91;100.00;97321.22;5025848;28;20232;-71
2021/05/14 11:09:06;;;;;;;2.97;0.60;;;;;;;14.96;100.00;97320.47;5025103;28;20204;-70
2021/05/14 11:11:34;;;;;;;1.83;0.60;;;;;;;14.54;100.00;97289.72;5025802;28;20206;-69
2021/05/14 11:14:15;;;;;;;4.63;0.80;;;;;;;15.27;100.00;97290.31;5025310;28;20208;-68
2021/05/14 11:16:42;;;;;;;1.13;0.60;;;;;;;15.76;100.00;97289.38;5025093;28;20233;-68
2021/05/14 11:19:20;;;;;;;5.53;1.00;;;;;;;15.92;100.00;97286.63;5033903;28;20216;-68
2021/05/14 11:22:03;;;;;;;1.47;0.63;;;;;;;16.25;100.00;97280.22;5026875;28;20212;-68
2021/05/14 11:24:33;;;;;;;4.90;0.50;;;;;;;16.82;100.00;97287.53;5021093;28;20221;-68
2021/05/14 11:27:11;;;;;;;1.73;0.80;;;;;;;16.89;100.00;97285.44;5033055;28;20594;-68
2021/05/14 11:29:42;;;;;;;1.47;0.70;;;;;;;17.66;100.00;97280.25;5024643;28;20231;-68